Карточка аэропорта UAKK

Внимание!
Информация на этой странице в стадии наполнения.
Если вы не увидели какой-то информации, или заметили неточность - пожалуйста сообщите нам!
Спасибо!
Команда RU-STAFF
Название аэропортаКараганда
Название аэропорта (англ.)Karaganda
Превышение1768 ft. (538.9 m.)
Координаты49°40.302', 73°20.118'
Высота перехода10000ft
Эшелон переходаFL120, QNH<733:FL130
Коды ответчика0630-0637, 7220-7227
Зона ОрВДАстана РПИ (UACN)
Данные METARUAKK 160830Z 25003MPS 210V300 9999 SCT050CB 26/14 Q1005 NOSIG RMK QFE708/0944
Проноз погоды (TAF)UAKK 160501Z 1606/1706 23007MPS 9999 SCT030CB BKN100 TX26/1608Z TN14/1701Z TEMPO 1606/1618 VRB16MPS 2000 TSRA SQ BKN020CB BECMG 1618/1620 17005MPS BKN030 BKN100 TEMPO 1618/1702 3100 -SHRA BR SCT011 BKN020CB BECMG 1702/1704 24006MPS TEMPO 1702/1706 5000 -SHRA BKN030CB
NOTAMshow/hide NOTAM
AWOS   TABLE

Информация о ВПП

ВПП Длина ВПП (м.) Покрытие Курс ВПП Частота ILS
233601Железобетон230111.7
053601Железобетон50109.9

Диспетчерские позиции




Спутниковое изображение